Susan Ann — WCY5700 — position and weather

sailwx.info

Track history (hours):
 
Tides and Currents Weather Stations Pressure Air Temp Water Temp Dewpoint Dewpoint Depression Visibility Wind Speed Wind Dir Waves Ship Positions

Susan Ann

Owner: CROSS SOUND FERRY SERVICES INC, NEW LONDON, CT. More information available from US FCC via Universal Licensing System and Coast Guard Vessel Documentation Center.

Last reported at 2014-Dec-20 01:17 UTC. Time now 2014-Dec-20 06:30 UTC.
Position N 41°21' W 072°05'.

Length 72 m; draft 4 m.

Type: Passenger vessel. MMSI: 367354350.

Date/timePositionNaut miles runAvg speedWind from/ knotsBaromVisibWave heightAir tempDewpointWater temp
2014-Dec-20 01:17N 41°21' W 072°05'911.8
2014-Dec-20 00:33N 41°13' W 072°10'5 4.9
2014-Dec-19 23:34N 41°09' W 072°14'8 7.9
2014-Dec-19 22:33N 41°15' W 072°08'6 6.2
2014-Dec-19 21:34N 41°21' W 072°06'1010.0
2014-Dec-19 20:33N 41°12' W 072°11'4 3.9
2014-Dec-19 19:34N 41°09' W 072°14'10 9.9
2014-Dec-19 18:34N 41°17' W 072°06'4 4.4
2014-Dec-19 17:34N 41°21' W 072°06'8 8.2
2014-Dec-19 16:33N 41°14' W 072°09'6 5.8
2014-Dec-19 15:34N 41°09' W 072°14'1111.5
2014-Dec-19 14:33N 41°18' W 072°05'3 3.1
2014-Dec-19 13:33N 41°21' W 072°06'9 8.5
2014-Dec-19 12:33N 41°13' W 072°10'5 5.5
2014-Dec-19 11:33N 41°09' W 072°14'0 0.0
2014-Dec-19 01:14N 41°09' W 072°14'812.1
2014-Dec-19 00:33N 41°16' W 072°08'6 5.9
2014-Dec-18 23:33N 41°21' W 072°06'10 9.5
2014-Dec-18 22:33N 41°13' W 072°11'4 4.3
2014-Dec-18 21:33N 41°09' W 072°14'8 7.8
2014-Dec-18 20:34N 41°15' W 072°08'6 6.2
2014-Dec-18 19:33N 41°21' W 072°06'8 8.4
2014-Dec-18 18:34N 41°13' W 072°10'6 5.6
2014-Dec-18 17:34N 41°09' W 072°14'8 8.0
2014-Dec-18 16:33N 41°16' W 072°08'6 6.0
2014-Dec-18 15:34N 41°21' W 072°06'9 8.9
2014-Dec-18 14:34N 41°13' W 072°10'5 5.1
2014-Dec-18 13:33N 41°09' W 072°14'8 8.5
2014-Dec-18 12:34N 41°16' W 072°07'6 5.8
2014-Dec-18 11:34N 41°21' W 072°06'1 0.1
2014-Dec-18 01:12N 41°21' W 072°05'812.3
2014-Dec-18 00:34N 41°14' W 072°09'6 5.7
2014-Dec-17 23:33N 41°09' W 072°14'8 8.3
2014-Dec-17 22:33N 41°16' W 072°07'6 5.8
2014-Dec-17 21:33N 41°21' W 072°06'10 9.7
2014-Dec-17 20:33N 41°13' W 072°11'4 4.2
2014-Dec-17 19:33N 41°09' W 072°14'9 9.0
2014-Dec-17 18:33N 41°16' W 072°07'5 5.2
2014-Dec-17 17:33N 41°21' W 072°06'8 8.0
2014-Dec-17 16:34N 41°14' W 072°09'6 6.1
2014-Dec-17 15:33N 41°09' W 072°14'1111.1
2014-Dec-17 14:34N 41°18' W 072°05'1 1.1
2014-Dec-17 13:34N 41°19' W 072°05'1212.1
2014-Dec-17 12:33N 41°09' W 072°14'0 0.2
2014-Dec-17 11:33N 41°09' W 072°14'0 0.0
2014-Dec-17 01:32N 41°09' W 072°14'9 8.8
2014-Dec-17 00:34N 41°16' W 072°07'6 5.7
2014-Dec-16 23:34N 41°21' W 072°06'9 9.0
2014-Dec-16 22:33N 41°13' W 072°11'5 4.9
2014-Dec-16 21:33N 41°09' W 072°14'8 8.2
2014-Dec-16 20:33N 41°16' W 072°08'6 5.8
2014-Dec-16 19:33N 41°21' W 072°06'9 9.0
2014-Dec-16 18:33N 41°13' W 072°11'5 4.9
2014-Dec-16 17:33N 41°09' W 072°14'8 8.1
2014-Dec-16 16:34N 41°16' W 072°08'6 5.9
2014-Dec-16 15:33N 41°21' W 072°06'9 8.9
2014-Dec-16 14:33N 41°13' W 072°10'5 5.1
2014-Dec-16 13:33N 41°09' W 072°14'9 8.7
2014-Dec-16 12:33N 41°16' W 072°07'5 5.5
2014-Dec-16 11:33N 41°21' W 072°06'0 0.0
2014-Dec-16 01:24N 41°21' W 072°06'910.3
2014-Dec-16 00:32N 41°13' W 072°10'5 5.2
2014-Dec-15 23:33N 41°09' W 072°14'9 8.7
2014-Dec-15 22:33N 41°16' W 072°07'6 5.5
2014-Dec-15 21:33N 41°21' W 072°06'9 8.9
2014-Dec-15 20:33N 41°13' W 072°10'5 5.1
2014-Dec-15 19:33N 41°09' W 072°14'8 8.3
2014-Dec-15 18:33N 41°16' W 072°08'6 5.7
2014-Dec-15 17:33N 41°21' W 072°06'9 8.8
2014-Dec-15 16:33N 41°13' W 072°10'5 5.1
2014-Dec-15 15:33N 41°09' W 072°14'1212.0
2014-Dec-15 14:34N 41°19' W 072°05'0 0.5
2014-Dec-15 13:33N 41°18' W 072°05'1211.6
2014-Dec-15 12:33N 41°09' W 072°14'0 0.2
2014-Dec-15 11:34N 41°09' W 072°14'0 0.0
2014-Dec-15 02:20N 41°09' W 072°14'6 8.2
2014-Dec-15 01:33N 41°14' W 072°09'8 7.5
2014-Dec-15 00:33N 41°21' W 072°06'9 9.4
2014-Dec-14 23:33N 41°13' W 072°11'5 4.5
2014-Dec-14 22:33N 41°09' W 072°14'8 7.9
2014-Dec-14 21:33N 41°15' W 072°08'6 6.2
2014-Dec-14 20:33N 41°21' W 072°06'9 8.7
2014-Dec-14 19:33N 41°13' W 072°10'5 5.2
2014-Dec-14 18:33N 41°09' W 072°14'8 8.0
2014-Dec-14 17:33N 41°16' W 072°08'6 6.1
2014-Dec-14 16:33N 41°21' W 072°06'8 8.3
2014-Dec-14 15:33N 41°14' W 072°10'6 5.7
2014-Dec-14 14:33N 41°09' W 072°14'9 8.5
2014-Dec-14 13:33N 41°16' W 072°07'6 5.6
2014-Dec-14 12:34N 41°21' W 072°06'0 0.0
2014-Dec-14 00:33N 41°21' W 072°06'9 9.5
2014-Dec-13 23:33N 41°13' W 072°10'5 4.6
2014-Dec-13 22:33N 41°09' W 072°14'9 8.7
2014-Dec-13 21:33N 41°16' W 072°07'5 5.5
2014-Dec-13 20:33N 41°21' W 072°06'9 9.3
2014-Dec-13 19:34N 41°13' W 072°10'5 4.8
2014-Dec-13 18:34N 41°09' W 072°14'8 8.0
2014-Dec-13 17:33N 41°15' W 072°08'6 6.1
2014-Dec-13 16:33N 41°21' W 072°06'9 9.3
2014-Dec-13 15:33N 41°13' W 072°10'5 4.7
2014-Dec-13 14:34N 41°09' W 072°14'8 8.3
2014-Dec-13 13:33N 41°16' W 072°08'6 5.8
2014-Dec-13 12:33N 41°21' W 072°06'1 0.1
2014-Dec-13 01:13N 41°21' W 072°05'812.3
2014-Dec-13 00:33N 41°13' W 072°10'6 5.5
2014-Dec-12 23:33N 41°09' W 072°14'9 9.1
2014-Dec-12 22:34N 41°16' W 072°07'5 5.2
2014-Dec-12 21:34N 41°21' W 072°06'9 8.9
2014-Dec-12 20:34N 41°13' W 072°10'5 5.2
2014-Dec-12 19:33N 41°09' W 072°14'8 7.9
2014-Dec-12 18:33N 41°15' W 072°08'6 6.2
2014-Dec-12 17:33N 41°21' W 072°06'10 9.5
2014-Dec-12 16:33N 41°13' W 072°11'4 4.4
2014-Dec-12 15:33N 41°09' W 072°14'1211.7
2014-Dec-12 14:34N 41°19' W 072°05'0 0.4
2014-Dec-12 13:34N 41°19' W 072°05'1212.0
2014-Dec-12 12:33N 41°09' W 072°14'0 0.1
2014-Dec-12 11:33N 41°09' W 072°14'0 0.0
2014-Dec-12 01:19N 41°09' W 072°14'811.1
2014-Dec-12 00:33N 41°16' W 072°07'6 5.7
2014-Dec-11 23:33N 41°21' W 072°06'9 8.9
2014-Dec-11 22:33N 41°13' W 072°11'5 4.9
2014-Dec-11 21:33N 41°09' W 072°14'9 8.8
2014-Dec-11 20:33N 41°16' W 072°07'6 5.5
2014-Dec-11 19:33N 41°21' W 072°06'9 8.8
2014-Dec-11 18:33N 41°13' W 072°10'5 5.2
2014-Dec-11 17:34N 41°09' W 072°14'9 9.2
2014-Dec-11 16:33N 41°15' W 072°05'6 6.0
2014-Dec-11 15:33N 41°21' W 072°06'9 9.0
2014-Dec-11 14:34N 41°13' W 072°10'5 4.9
2014-Dec-11 13:33N 41°09' W 072°14'8 8.1
2014-Dec-11 12:34N 41°16' W 072°08'6 6.0
2014-Dec-11 11:34N 41°21' W 072°06'1 0.1
2014-Dec-11 01:11N 41°21' W 072°05'812.4
2014-Dec-11 00:34N 41°14' W 072°10'6 5.6
2014-Dec-10 23:33N 41°09' W 072°14'9 8.7
2014-Dec-10 22:34N 41°16' W 072°07'6 5.5
2014-Dec-10 21:34N 41°21' W 072°06'9 8.7
2014-Dec-10 20:34N 41°13' W 072°10'5 5.3
2014-Dec-10 19:33N 41°09' W 072°14'8 7.8
2014-Dec-10 18:33N 41°15' W 072°07'6 6.4
2014-Dec-10 17:33N 41°21' W 072°06'9 8.5
2014-Dec-10 16:33N 41°13' W 072°10'5 5.5
2014-Dec-10 15:33N 41°09' W 072°14'1111.1
2014-Dec-10 14:33N 41°18' W 072°05'1 0.5
2014-Dec-10 13:34N 41°18' W 072°05'1211.6
2014-Dec-10 12:34N 41°09' W 072°14'0 0.2
2014-Dec-10 11:33N 41°09' W 072°14'0 0.0
2014-Dec-10 01:30N 41°09' W 072°14'  
Track history (hours):
 
Tides and Currents Weather Stations Pressure Air Temp Water Temp Dewpoint Dewpoint Depression Visibility Wind Speed Wind Dir Waves Ship Positions

Susan Ann

Owner: CROSS SOUND FERRY SERVICES INC, NEW LONDON, CT. More information available from US FCC via Universal Licensing System and Coast Guard Vessel Documentation Center.

Last reported at 2014-Dec-20 01:17 UTC. Time now 2014-Dec-20 06:30 UTC.
Position N 41°21' W 072°05'.

Length 72 m; draft 4 m.

Type: Passenger vessel. MMSI: 367354350.

Date/timePositionNaut miles runAvg speedWind from/ knotsBaromVisibWave heightAir tempDewpointWater temp
2014-Dec-20 01:17N 41°21' W 072°05'911.8
2014-Dec-20 00:33N 41°13' W 072°10'5 4.9
2014-Dec-19 23:34N 41°09' W 072°14'8 7.9
2014-Dec-19 22:33N 41°15' W 072°08'6 6.2
2014-Dec-19 21:34N 41°21' W 072°06'1010.0
2014-Dec-19 20:33N 41°12' W 072°11'4 3.9
2014-Dec-19 19:34N 41°09' W 072°14'10 9.9
2014-Dec-19 18:34N 41°17' W 072°06'4 4.4
2014-Dec-19 17:34N 41°21' W 072°06'8 8.2
2014-Dec-19 16:33N 41°14' W 072°09'6 5.8
2014-Dec-19 15:34N 41°09' W 072°14'1111.5
2014-Dec-19 14:33N 41°18' W 072°05'3 3.1
2014-Dec-19 13:33N 41°21' W 072°06'9 8.5
2014-Dec-19 12:33N 41°13' W 072°10'5 5.5
2014-Dec-19 11:33N 41°09' W 072°14'0 0.0
2014-Dec-19 01:14N 41°09' W 072°14'812.1
2014-Dec-19 00:33N 41°16' W 072°08'6 5.9
2014-Dec-18 23:33N 41°21' W 072°06'10 9.5
2014-Dec-18 22:33N 41°13' W 072°11'4 4.3
2014-Dec-18 21:33N 41°09' W 072°14'8 7.8
2014-Dec-18 20:34N 41°15' W 072°08'6 6.2
2014-Dec-18 19:33N 41°21' W 072°06'8 8.4
2014-Dec-18 18:34N 41°13' W 072°10'6 5.6
2014-Dec-18 17:34N 41°09' W 072°14'8 8.0
2014-Dec-18 16:33N 41°16' W 072°08'6 6.0
2014-Dec-18 15:34N 41°21' W 072°06'9 8.9
2014-Dec-18 14:34N 41°13' W 072°10'5 5.1
2014-Dec-18 13:33N 41°09' W 072°14'8 8.5
2014-Dec-18 12:34N 41°16' W 072°07'6 5.8
2014-Dec-18 11:34N 41°21' W 072°06'1 0.1
2014-Dec-18 01:12N 41°21' W 072°05'812.3
2014-Dec-18 00:34N 41°14' W 072°09'6 5.7
2014-Dec-17 23:33N 41°09' W 072°14'8 8.3
2014-Dec-17 22:33N 41°16' W 072°07'6 5.8
2014-Dec-17 21:33N 41°21' W 072°06'10 9.7
2014-Dec-17 20:33N 41°13' W 072°11'4 4.2
2014-Dec-17 19:33N 41°09' W 072°14'9 9.0
2014-Dec-17 18:33N 41°16' W 072°07'5 5.2
2014-Dec-17 17:33N 41°21' W 072°06'8 8.0
2014-Dec-17 16:34N 41°14' W 072°09'6 6.1
2014-Dec-17 15:33N 41°09' W 072°14'1111.1
2014-Dec-17 14:34N 41°18' W 072°05'1 1.1
2014-Dec-17 13:34N 41°19' W 072°05'1212.1
2014-Dec-17 12:33N 41°09' W 072°14'0 0.2
2014-Dec-17 11:33N 41°09' W 072°14'0 0.0
2014-Dec-17 01:32N 41°09' W 072°14'9 8.8
2014-Dec-17 00:34N 41°16' W 072°07'6 5.7
2014-Dec-16 23:34N 41°21' W 072°06'9 9.0
2014-Dec-16 22:33N 41°13' W 072°11'5 4.9
2014-Dec-16 21:33N 41°09' W 072°14'8 8.2
2014-Dec-16 20:33N 41°16' W 072°08'6 5.8
2014-Dec-16 19:33N 41°21' W 072°06'9 9.0
2014-Dec-16 18:33N 41°13' W 072°11'5 4.9
2014-Dec-16 17:33N 41°09' W 072°14'8 8.1
2014-Dec-16 16:34N 41°16' W 072°08'6 5.9
2014-Dec-16 15:33N 41°21' W 072°06'9 8.9
2014-Dec-16 14:33N 41°13' W 072°10'5 5.1
2014-Dec-16 13:33N 41°09' W 072°14'9 8.7
2014-Dec-16 12:33N 41°16' W 072°07'5 5.5
2014-Dec-16 11:33N 41°21' W 072°06'0 0.0
2014-Dec-16 01:24N 41°21' W 072°06'910.3
2014-Dec-16 00:32N 41°13' W 072°10'5 5.2
2014-Dec-15 23:33N 41°09' W 072°14'9 8.7
2014-Dec-15 22:33N 41°16' W 072°07'6 5.5
2014-Dec-15 21:33N 41°21' W 072°06'9 8.9
2014-Dec-15 20:33N 41°13' W 072°10'5 5.1
2014-Dec-15 19:33N 41°09' W 072°14'8 8.3
2014-Dec-15 18:33N 41°16' W 072°08'6 5.7
2014-Dec-15 17:33N 41°21' W 072°06'9 8.8
2014-Dec-15 16:33N 41°13' W 072°10'5 5.1
2014-Dec-15 15:33N 41°09' W 072°14'1212.0
2014-Dec-15 14:34N 41°19' W 072°05'0 0.5
2014-Dec-15 13:33N 41°18' W 072°05'1211.6
2014-Dec-15 12:33N 41°09' W 072°14'0 0.2
2014-Dec-15 11:34N 41°09' W 072°14'0 0.0
2014-Dec-15 02:20N 41°09' W 072°14'6 8.2
2014-Dec-15 01:33N 41°14' W 072°09'8 7.5
2014-Dec-15 00:33N 41°21' W 072°06'9 9.4
2014-Dec-14 23:33N 41°13' W 072°11'5 4.5
2014-Dec-14 22:33N 41°09' W 072°14'8 7.9
2014-Dec-14 21:33N 41°15' W 072°08'6 6.2
2014-Dec-14 20:33N 41°21' W 072°06'9 8.7
2014-Dec-14 19:33N 41°13' W 072°10'5 5.2
2014-Dec-14 18:33N 41°09' W 072°14'8 8.0
2014-Dec-14 17:33N 41°16' W 072°08'6 6.1
2014-Dec-14 16:33N 41°21' W 072°06'8 8.3
2014-Dec-14 15:33N 41°14' W 072°10'6 5.7
2014-Dec-14 14:33N 41°09' W 072°14'9 8.5
2014-Dec-14 13:33N 41°16' W 072°07'6 5.6
2014-Dec-14 12:34N 41°21' W 072°06'0 0.0
2014-Dec-14 00:33N 41°21' W 072°06'9 9.5
2014-Dec-13 23:33N 41°13' W 072°10'5 4.6
2014-Dec-13 22:33N 41°09' W 072°14'9 8.7
2014-Dec-13 21:33N 41°16' W 072°07'5 5.5
2014-Dec-13 20:33N 41°21' W 072°06'9 9.3
2014-Dec-13 19:34N 41°13' W 072°10'5 4.8
2014-Dec-13 18:34N 41°09' W 072°14'8 8.0
2014-Dec-13 17:33N 41°15' W 072°08'6 6.1
2014-Dec-13 16:33N 41°21' W 072°06'9 9.3
2014-Dec-13 15:33N 41°13' W 072°10'5 4.7
2014-Dec-13 14:34N 41°09' W 072°14'8 8.3
2014-Dec-13 13:33N 41°16' W 072°08'6 5.8
2014-Dec-13 12:33N 41°21' W 072°06'1 0.1
2014-Dec-13 01:13N 41°21' W 072°05'812.3
2014-Dec-13 00:33N 41°13' W 072°10'6 5.5
2014-Dec-12 23:33N 41°09' W 072°14'9 9.1
2014-Dec-12 22:34N 41°16' W 072°07'5 5.2
2014-Dec-12 21:34N 41°21' W 072°06'9 8.9
2014-Dec-12 20:34N 41°13' W 072°10'5 5.2
2014-Dec-12 19:33N 41°09' W 072°14'8 7.9
2014-Dec-12 18:33N 41°15' W 072°08'6 6.2
2014-Dec-12 17:33N 41°21' W 072°06'10 9.5
2014-Dec-12 16:33N 41°13' W 072°11'4 4.4
2014-Dec-12 15:33N 41°09' W 072°14'1211.7
2014-Dec-12 14:34N 41°19' W 072°05'0 0.4
2014-Dec-12 13:34N 41°19' W 072°05'1212.0
2014-Dec-12 12:33N 41°09' W 072°14'0 0.1
2014-Dec-12 11:33N 41°09' W 072°14'0 0.0
2014-Dec-12 01:19N 41°09' W 072°14'811.1
2014-Dec-12 00:33N 41°16' W 072°07'6 5.7
2014-Dec-11 23:33N 41°21' W 072°06'9 8.9
2014-Dec-11 22:33N 41°13' W 072°11'5 4.9
2014-Dec-11 21:33N 41°09' W 072°14'9 8.8
2014-Dec-11 20:33N 41°16' W 072°07'6 5.5
2014-Dec-11 19:33N 41°21' W 072°06'9 8.8
2014-Dec-11 18:33N 41°13' W 072°10'5 5.2
2014-Dec-11 17:34N 41°09' W 072°14'9 9.2
2014-Dec-11 16:33N 41°15' W 072°05'6 6.0
2014-Dec-11 15:33N 41°21' W 072°06'9 9.0
2014-Dec-11 14:34N 41°13' W 072°10'5 4.9
2014-Dec-11 13:33N 41°09' W 072°14'8 8.1
2014-Dec-11 12:34N 41°16' W 072°08'6 6.0
2014-Dec-11 11:34N 41°21' W 072°06'1 0.1
2014-Dec-11 01:11N 41°21' W 072°05'812.4
2014-Dec-11 00:34N 41°14' W 072°10'6 5.6
2014-Dec-10 23:33N 41°09' W 072°14'9 8.7
2014-Dec-10 22:34N 41°16' W 072°07'6 5.5
2014-Dec-10 21:34N 41°21' W 072°06'9 8.7
2014-Dec-10 20:34N 41°13' W 072°10'5 5.3
2014-Dec-10 19:33N 41°09' W 072°14'8 7.8
2014-Dec-10 18:33N 41°15' W 072°07'6 6.4
2014-Dec-10 17:33N 41°21' W 072°06'9 8.5
2014-Dec-10 16:33N 41°13' W 072°10'5 5.5
2014-Dec-10 15:33N 41°09' W 072°14'1111.1
2014-Dec-10 14:33N 41°18' W 072°05'1 0.5
2014-Dec-10 13:34N 41°18' W 072°05'1211.6
2014-Dec-10 12:34N 41°09' W 072°14'0 0.2
2014-Dec-10 11:33N 41°09' W 072°14'0 0.0
2014-Dec-10 01:30N 41°09' W 072°14'  

Dump ship's entire track history